logo tempoitalia

Diretta Meteo Constantine, Algerialunedì 31 agosto ore 06:00

Mappa
Sereno 21 °C Sereno 24 Ore: T.min 21 T.max 41
Ponente Nord Km/h 3.7 Punto di rugiada: 14 °C Umidità: 64% Visibilità: 10 Km
Il sole sorge alle: 06:04 Il sole tramonta alle: 19:03
31 Agosto 2026 06:00 tempo osservato: Sereno Sereno 21 64 1020 vento: Nord N 3.7
31 Agosto 2026 05:30 tempo osservato: Sereno Sereno 22 60 1020 vento: Nord N 3.7
31 Agosto 2026 05:00 tempo osservato: Sereno Sereno 23 64 1020 vento: Nord N 3.7
31 Agosto 2026 04:30 tempo osservato: Sereno Sereno 22 68 1020 vento: Nord N 3.7
31 Agosto 2026 04:00 tempo osservato: Sereno Sereno 23 68 1020 vento: Nord N 3.7
31 Agosto 2026 03:30 tempo osservato: Sereno Sereno 22 78 1020 vento: Nord N 3.7
31 Agosto 2026 03:00 tempo osservato: Sereno Sereno 23 73 1020 vento: Nord N 3.7
31 Agosto 2026 02:30 tempo osservato: Sereno Sereno 23 73 1020 vento: Nord N 3.7
31 Agosto 2026 02:00 tempo osservato: Sereno Sereno 23 73 1020 vento: Nord N 3.7
31 Agosto 2026 01:30 tempo osservato: Sereno Sereno 23 78 1020 vento: Nord N 3.7
31 Agosto 2026 01:00 tempo osservato: Sereno Sereno 24 73 1020 vento: Nord N 3.7
31 Agosto 2026 00:30 tempo osservato: Sereno Sereno 24 73 1021 vento: Nord N 3.7
31 Agosto 2026 00:00 tempo osservato: Sereno Sereno 24 78 1021 vento: Nord NO 7.4
30 Agosto 2026 23:30 tempo osservato: Sereno Sereno 24 78 1021 vento: Nord NO 7.4
30 Agosto 2026 23:00 tempo osservato: Sereno Sereno 24 78 1021 vento: Nord N 9.3
30 Agosto 2026 22:30 tempo osservato: Sereno Sereno 25 73 1021 vento: Nord N/NO 7.4
30 Agosto 2026 22:00 tempo osservato: Sereno Sereno 25 73 1021 vento: Nord N/NO 11.1
30 Agosto 2026 21:30 tempo osservato: Sereno Sereno 26 69 1021 vento: Nord N/NO 11.1
30 Agosto 2026 21:00 tempo osservato: Sereno Sereno 29 51 1020 vento: Nord NE 9.3
30 Agosto 2026 20:30 tempo osservato: Sereno Sereno 29 45 1020 vento: Nord N 11.1
30 Agosto 2026 20:00 tempo osservato: Sereno Sereno 32 24 1019 vento: Nord NE 11.1
30 Agosto 2026 19:30 tempo osservato: Sereno Sereno 33 22 1019 vento: Nord E 9.3
30 Agosto 2026 19:00 tempo osservato: Sereno Sereno 34 21 1019 vento: Nord S/SE 14.8
30 Agosto 2026 18:30 tempo osservato: Sereno Sereno 35 20 1019 vento: Nord E/SE 22.2
30 Agosto 2026 18:00 tempo osservato: Sereno Sereno 35 39 1019 vento: Nord N 18.5
30 Agosto 2026 17:30 tempo osservato: Sereno Sereno 37 30 1018 vento: Nord N 18.5
30 Agosto 2026 17:00 tempo osservato: Sereno Sereno 37 27 1018 vento: Nord N/NO 14.8
30 Agosto 2026 16:30 tempo osservato: Sereno Sereno 39 22 1018 vento: Nord N/NO 24
30 Agosto 2026 16:00 tempo osservato: Sereno Sereno 41 11 1018 vento: Nord O/NO 27.8
30 Agosto 2026 15:30 tempo osservato: Sereno Sereno 40 12 1018 vento: Nord O/NO 31.5
30 Agosto 2026 15:00 tempo osservato: Sereno Sereno 41 12 1018 vento: Nord NO 29.6
30 Agosto 2026 14:30 tempo osservato: Sereno Sereno 39 21 1019 vento: Nord N 16.7
30 Agosto 2026 14:00 tempo osservato: Sereno Sereno 38 27 1019 vento: Nord N 14.8
30 Agosto 2026 13:30 tempo osservato: Sereno Sereno 37 30 1020 vento: Nord N/NE 14.8
30 Agosto 2026 13:00 tempo osservato: Sereno Sereno 36 30 1020 vento: Nord N 11.1
30 Agosto 2026 12:30 tempo osservato: Sereno Sereno 35 36 1020 vento: Nord NE 9.3
30 Agosto 2026 12:00 tempo osservato: Sereno Sereno 36 30 1020 vento: Nord N/NE 7.4
30 Agosto 2026 11:30 tempo osservato: Sereno Sereno 34 32 1021 vento: Nord E/NE 7.4
30 Agosto 2026 11:00 tempo osservato: Sereno Sereno 33 33 1021 vento: Nord N 5.5
30 Agosto 2026 10:30 tempo osservato: Sereno Sereno 31 43 1021 vento: Nord N 3.7
30 Agosto 2026 10:00 tempo osservato: Sereno Sereno 30 48 1021 vento: Nord N 3.7
30 Agosto 2026 09:30 tempo osservato: Sereno Sereno 28 58 1021 vento: Nord N 3.7
30 Agosto 2026 09:00 tempo osservato: Sereno Sereno 27 61 1021 vento: Nord N 3.7
30 Agosto 2026 08:30 tempo osservato: Poco Nuvoloso Poco Nuvoloso 26 69 1021 vento: Nord N 5.5
30 Agosto 2026 08:00 tempo osservato: Poco Nuvoloso Poco Nuvoloso 25 73 1021 vento: Nord N 3.7
30 Agosto 2026 07:30 tempo osservato: Poco Nuvoloso Poco Nuvoloso 23 78 1021 vento: Nord N 1.8
30 Agosto 2026 07:00 tempo osservato: Poco Nuvoloso Poco Nuvoloso 23 83 1020 vento: Nord N 3.7